sensor_id;sensor_type;location;lat;lon;timestamp;temperature;humidity
4763;DHT22;2395;50.738;7.122;2022-09-27T00:00:47;10.40;99.90
4763;DHT22;2395;50.738;7.122;2022-09-27T00:03:14;10.40;99.90
4763;DHT22;2395;50.738;7.122;2022-09-27T00:05:41;10.40;99.90
4763;DHT22;2395;50.738;7.122;2022-09-27T00:08:08;10.40;99.90
4763;DHT22;2395;50.738;7.122;2022-09-27T00:10:35;10.40;99.90
4763;DHT22;2395;50.738;7.122;2022-09-27T00:13:02;10.40;99.90
4763;DHT22;2395;50.738;7.122;2022-09-27T00:15:31;10.30;99.90
4763;DHT22;2395;50.738;7.122;2022-09-27T00:18:04;10.20;99.90
4763;DHT22;2395;50.738;7.122;2022-09-27T00:20:33;10.10;99.90
4763;DHT22;2395;50.738;7.122;2022-09-27T00:23:01;10.20;99.90
4763;DHT22;2395;50.738;7.122;2022-09-27T00:25:28;10.20;99.90
4763;DHT22;2395;50.738;7.122;2022-09-27T00:28:01;10.20;99.90
4763;DHT22;2395;50.738;7.122;2022-09-27T00:30:28;10.20;99.90
4763;DHT22;2395;50.738;7.122;2022-09-27T00:32:57;10.20;99.90
4763;DHT22;2395;50.738;7.122;2022-09-27T00:35:24;10.20;99.90
4763;DHT22;2395;50.738;7.122;2022-09-27T00:38:04;10.20;99.90
4763;DHT22;2395;50.738;7.122;2022-09-27T00:40:32;10.10;99.90
4763;DHT22;2395;50.738;7.122;2022-09-27T00:42:59;10.10;99.90
4763;DHT22;2395;50.738;7.122;2022-09-27T00:45:27;10.10;99.90
4763;DHT22;2395;50.738;7.122;2022-09-27T00:47:59;10.10;99.90
4763;DHT22;2395;50.738;7.122;2022-09-27T00:50:35;10.00;99.90
4763;DHT22;2395;50.738;7.122;2022-09-27T00:53:10;10.00;99.90
4763;DHT22;2395;50.738;7.122;2022-09-27T00:55:45;10.00;99.90
4763;DHT22;2395;50.738;7.122;2022-09-27T00:58:21;10.00;99.90
4763;DHT22;2395;50.738;7.122;2022-09-27T01:00:56;10.00;99.90
4763;DHT22;2395;50.738;7.122;2022-09-27T01:03:33;10.00;99.90
4763;DHT22;2395;50.738;7.122;2022-09-27T01:06:08;10.00;99.90
4763;DHT22;2395;50.738;7.122;2022-09-27T01:08:37;10.00;99.90
4763;DHT22;2395;50.738;7.122;2022-09-27T01:11:16;10.00;99.90
4763;DHT22;2395;50.738;7.122;2022-09-27T01:14:03;9.90;99.90
4763;DHT22;2395;50.738;7.122;2022-09-27T01:16:47;9.90;99.90
4763;DHT22;2395;50.738;7.122;2022-09-27T01:19:43;9.80;99.90
4763;DHT22;2395;50.738;7.122;2022-09-27T01:22:32;9.80;99.90
4763;DHT22;2395;50.738;7.122;2022-09-27T01:25:20;9.80;99.90
4763;DHT22;2395;50.738;7.122;2022-09-27T01:28:17;9.70;99.90
4763;DHT22;2395;50.738;7.122;2022-09-27T01:30:54;9.70;99.90
4763;DHT22;2395;50.738;7.122;2022-09-27T01:33:46;9.60;99.90
4763;DHT22;2395;50.738;7.122;2022-09-27T01:36:28;9.70;99.90
4763;DHT22;2395;50.738;7.122;2022-09-27T01:39:15;9.70;99.90
4763;DHT22;2395;50.738;7.122;2022-09-27T01:41:57;9.70;99.90
4763;DHT22;2395;50.738;7.122;2022-09-27T01:44:34;9.70;99.90
4763;DHT22;2395;50.738;7.122;2022-09-27T01:47:15;9.70;99.90
4763;DHT22;2395;50.738;7.122;2022-09-27T01:49:51;9.60;99.90
4763;DHT22;2395;50.738;7.122;2022-09-27T01:52:28;9.60;99.90
4763;DHT22;2395;50.738;7.122;2022-09-27T01:55:04;9.60;99.90
4763;DHT22;2395;50.738;7.122;2022-09-27T01:57:42;9.60;99.90
4763;DHT22;2395;50.738;7.122;2022-09-27T02:00:14;9.60;99.90
4763;DHT22;2395;50.738;7.122;2022-09-27T02:02:52;9.60;99.90
4763;DHT22;2395;50.738;7.122;2022-09-27T02:05:30;9.60;99.90
4763;DHT22;2395;50.738;7.122;2022-09-27T02:08:04;9.50;99.90
4763;DHT22;2395;50.738;7.122;2022-09-27T02:10:42;9.60;99.90
4763;DHT22;2395;50.738;7.122;2022-09-27T02:13:16;9.60;99.90
4763;DHT22;2395;50.738;7.122;2022-09-27T02:15:54;9.50;99.90
4763;DHT22;2395;50.738;7.122;2022-09-27T02:18:33;9.60;99.90
4763;DHT22;2395;50.738;7.122;2022-09-27T02:21:10;9.60;99.90
4763;DHT22;2395;50.738;7.122;2022-09-27T02:23:45;9.60;99.90
4763;DHT22;2395;50.738;7.122;2022-09-27T02:26:21;9.60;99.90
4763;DHT22;2395;50.738;7.122;2022-09-27T02:28:55;9.60;99.90
4763;DHT22;2395;50.738;7.122;2022-09-27T02:31:26;9.60;99.90
4763;DHT22;2395;50.738;7.122;2022-09-27T02:33:59;9.60;99.90
4763;DHT22;2395;50.738;7.122;2022-09-27T02:36:30;9.60;99.90
4763;DHT22;2395;50.738;7.122;2022-09-27T02:39:03;9.60;99.90
4763;DHT22;2395;50.738;7.122;2022-09-27T02:41:31;9.60;99.90
4763;DHT22;2395;50.738;7.122;2022-09-27T02:44:03;9.60;99.90
4763;DHT22;2395;50.738;7.122;2022-09-27T02:46:50;9.60;99.90
4763;DHT22;2395;50.738;7.122;2022-09-27T02:49:45;9.70;99.90
4763;DHT22;2395;50.738;7.122;2022-09-27T02:52:26;9.60;99.90
4763;DHT22;2395;50.738;7.122;2022-09-27T02:55:11;9.60;99.90
4763;DHT22;2395;50.738;7.122;2022-09-27T02:57:53;9.60;99.90
4763;DHT22;2395;50.738;7.122;2022-09-27T03:00:36;9.60;99.90
4763;DHT22;2395;50.738;7.122;2022-09-27T03:03:13;9.60;99.90
4763;DHT22;2395;50.738;7.122;2022-09-27T03:05:51;9.60;99.90
4763;DHT22;2395;50.738;7.122;2022-09-27T03:08:21;9.60;99.90
4763;DHT22;2395;50.738;7.122;2022-09-27T03:10:49;9.60;99.90
4763;DHT22;2395;50.738;7.122;2022-09-27T03:13:16;9.60;99.90
4763;DHT22;2395;50.738;7.122;2022-09-27T03:15:43;9.60;99.90
4763;DHT22;2395;50.738;7.122;2022-09-27T03:18:11;9.50;99.90
4763;DHT22;2395;50.738;7.122;2022-09-27T03:20:38;9.60;99.90
4763;DHT22;2395;50.738;7.122;2022-09-27T03:23:07;9.50;99.90
4763;DHT22;2395;50.738;7.122;2022-09-27T03:25:34;9.50;99.90
4763;DHT22;2395;50.738;7.122;2022-09-27T03:28:01;9.50;99.90
4763;DHT22;2395;50.738;7.122;2022-09-27T03:30:28;9.50;99.90
4763;DHT22;2395;50.738;7.122;2022-09-27T03:32:55;9.50;99.90
4763;DHT22;2395;50.738;7.122;2022-09-27T03:35:22;9.40;99.90
4763;DHT22;2395;50.738;7.122;2022-09-27T03:37:50;9.40;99.90
4763;DHT22;2395;50.738;7.122;2022-09-27T03:40:18;9.40;99.90
4763;DHT22;2395;50.738;7.122;2022-09-27T03:42:52;9.30;99.90
4763;DHT22;2395;50.738;7.122;2022-09-27T03:45:19;9.40;99.90
4763;DHT22;2395;50.738;7.122;2022-09-27T03:47:49;9.40;99.90
4763;DHT22;2395;50.738;7.122;2022-09-27T03:50:20;9.30;99.90
4763;DHT22;2395;50.738;7.122;2022-09-27T03:52:48;9.30;99.90
4763;DHT22;2395;50.738;7.122;2022-09-27T03:55:15;9.30;99.90
4763;DHT22;2395;50.738;7.122;2022-09-27T03:57:45;9.30;99.90
4763;DHT22;2395;50.738;7.122;2022-09-27T04:00:15;9.30;99.90
4763;DHT22;2395;50.738;7.122;2022-09-27T04:02:43;9.20;99.90
4763;DHT22;2395;50.738;7.122;2022-09-27T04:05:12;9.30;99.90
4763;DHT22;2395;50.738;7.122;2022-09-27T04:07:45;9.20;99.90
4763;DHT22;2395;50.738;7.122;2022-09-27T04:10:14;9.20;99.90
4763;DHT22;2395;50.738;7.122;2022-09-27T04:12:43;9.20;99.90
4763;DHT22;2395;50.738;7.122;2022-09-27T04:15:14;9.20;99.90
4763;DHT22;2395;50.738;7.122;2022-09-27T04:17:43;9.20;99.90
4763;DHT22;2395;50.738;7.122;2022-09-27T04:20:10;9.20;99.90
4763;DHT22;2395;50.738;7.122;2022-09-27T04:22:38;9.20;99.90
4763;DHT22;2395;50.738;7.122;2022-09-27T04:25:09;9.20;99.90
4763;DHT22;2395;50.738;7.122;2022-09-27T04:27:36;9.10;99.90
4763;DHT22;2395;50.738;7.122;2022-09-27T04:30:06;9.10;99.90
4763;DHT22;2395;50.738;7.122;2022-09-27T04:32:39;9.00;99.90
4763;DHT22;2395;50.738;7.122;2022-09-27T04:35:08;9.00;99.90
4763;DHT22;2395;50.738;7.122;2022-09-27T04:37:56;9.00;99.90
4763;DHT22;2395;50.738;7.122;2022-09-27T04:40:23;9.00;99.90
4763;DHT22;2395;50.738;7.122;2022-09-27T04:42:51;9.00;99.90
4763;DHT22;2395;50.738;7.122;2022-09-27T04:45:19;9.00;99.90
4763;DHT22;2395;50.738;7.122;2022-09-27T04:47:48;8.90;99.90
4763;DHT22;2395;50.738;7.122;2022-09-27T04:50:16;9.00;99.90
4763;DHT22;2395;50.738;7.122;2022-09-27T04:52:49;8.90;99.90
4763;DHT22;2395;50.738;7.122;2022-09-27T04:55:17;8.90;99.90
4763;DHT22;2395;50.738;7.122;2022-09-27T04:57:45;8.90;99.90
4763;DHT22;2395;50.738;7.122;2022-09-27T05:00:13;8.90;99.90
4763;DHT22;2395;50.738;7.122;2022-09-27T05:02:43;8.90;99.90
4763;DHT22;2395;50.738;7.122;2022-09-27T05:05:10;8.90;99.90
4763;DHT22;2395;50.738;7.122;2022-09-27T05:07:37;8.90;99.90
4763;DHT22;2395;50.738;7.122;2022-09-27T05:10:06;8.80;99.90
4763;DHT22;2395;50.738;7.122;2022-09-27T05:12:40;8.80;99.90
4763;DHT22;2395;50.738;7.122;2022-09-27T05:15:11;8.80;99.90
4763;DHT22;2395;50.738;7.122;2022-09-27T05:18:13;8.80;99.90
4763;DHT22;2395;50.738;7.122;2022-09-27T05:20:40;8.80;99.90
4763;DHT22;2395;50.738;7.122;2022-09-27T05:23:31;8.80;99.90
4763;DHT22;2395;50.738;7.122;2022-09-27T05:26:17;8.90;99.90
4763;DHT22;2395;50.738;7.122;2022-09-27T05:28:44;8.90;99.90
4763;DHT22;2395;50.738;7.122;2022-09-27T05:31:12;8.90;99.90
4763;DHT22;2395;50.738;7.122;2022-09-27T05:33:49;8.90;99.90
4763;DHT22;2395;50.738;7.122;2022-09-27T05:36:23;8.80;99.90
4763;DHT22;2395;50.738;7.122;2022-09-27T05:42:25;8.80;99.90
4763;DHT22;2395;50.738;7.122;2022-09-27T05:44:55;8.90;99.90
4763;DHT22;2395;50.738;7.122;2022-09-27T05:47:25;8.90;99.90
4763;DHT22;2395;50.738;7.122;2022-09-27T05:49:54;8.90;99.90
4763;DHT22;2395;50.738;7.122;2022-09-27T05:52:22;9.00;99.90
4763;DHT22;2395;50.738;7.122;2022-09-27T05:54:50;9.00;99.90
4763;DHT22;2395;50.738;7.122;2022-09-27T05:57:23;9.00;99.90
4763;DHT22;2395;50.738;7.122;2022-09-27T05:59:51;9.00;99.90
4763;DHT22;2395;50.738;7.122;2022-09-27T06:02:18;9.00;99.90
4763;DHT22;2395;50.738;7.122;2022-09-27T06:04:47;9.00;99.90
4763;DHT22;2395;50.738;7.122;2022-09-27T06:07:18;9.00;99.90
4763;DHT22;2395;50.738;7.122;2022-09-27T06:09:46;9.00;99.90
4763;DHT22;2395;50.738;7.122;2022-09-27T06:12:13;8.90;99.90
4763;DHT22;2395;50.738;7.122;2022-09-27T06:14:41;8.90;99.90
4763;DHT22;2395;50.738;7.122;2022-09-27T06:17:11;9.00;99.90
4763;DHT22;2395;50.738;7.122;2022-09-27T06:19:38;9.00;99.90
4763;DHT22;2395;50.738;7.122;2022-09-27T06:22:05;9.00;99.90
4763;DHT22;2395;50.738;7.122;2022-09-27T06:24:34;9.00;99.90
4763;DHT22;2395;50.738;7.122;2022-09-27T06:27:01;9.00;99.90
4763;DHT22;2395;50.738;7.122;2022-09-27T06:29:29;9.10;99.90
4763;DHT22;2395;50.738;7.122;2022-09-27T06:32:00;9.10;99.90
4763;DHT22;2395;50.738;7.122;2022-09-27T06:34:27;9.20;99.90
4763;DHT22;2395;50.738;7.122;2022-09-27T06:36:54;9.30;99.90
4763;DHT22;2395;50.738;7.122;2022-09-27T06:39:22;9.30;99.90
4763;DHT22;2395;50.738;7.122;2022-09-27T06:41:53;9.30;99.90
4763;DHT22;2395;50.738;7.122;2022-09-27T06:44:22;9.30;99.90
4763;DHT22;2395;50.738;7.122;2022-09-27T06:46:50;9.40;99.90
4763;DHT22;2395;50.738;7.122;2022-09-27T06:49:20;9.50;99.90
4763;DHT22;2395;50.738;7.122;2022-09-27T06:51:47;9.60;99.90
4763;DHT22;2395;50.738;7.122;2022-09-27T06:54:15;9.70;99.90
4763;DHT22;2395;50.738;7.122;2022-09-27T06:56:42;9.80;99.90
4763;DHT22;2395;50.738;7.122;2022-09-27T06:59:10;9.80;99.90
4763;DHT22;2395;50.738;7.122;2022-09-27T07:01:55;9.90;99.90
4763;DHT22;2395;50.738;7.122;2022-09-27T07:04:22;10.00;99.90
4763;DHT22;2395;50.738;7.122;2022-09-27T07:06:49;10.10;99.90
4763;DHT22;2395;50.738;7.122;2022-09-27T07:09:18;10.10;99.90
4763;DHT22;2395;50.738;7.122;2022-09-27T07:11:45;10.20;99.90
4763;DHT22;2395;50.738;7.122;2022-09-27T07:14:14;10.20;99.90
4763;DHT22;2395;50.738;7.122;2022-09-27T07:16:41;10.30;99.90
4763;DHT22;2395;50.738;7.122;2022-09-27T07:19:09;10.30;99.90
4763;DHT22;2395;50.738;7.122;2022-09-27T07:21:38;10.40;99.90
4763;DHT22;2395;50.738;7.122;2022-09-27T07:24:05;10.40;99.90
4763;DHT22;2395;50.738;7.122;2022-09-27T07:26:32;10.30;99.90
4763;DHT22;2395;50.738;7.122;2022-09-27T07:28:59;10.30;99.90
4763;DHT22;2395;50.738;7.122;2022-09-27T07:31:27;10.30;99.90
4763;DHT22;2395;50.738;7.122;2022-09-27T07:33:55;10.30;99.90
4763;DHT22;2395;50.738;7.122;2022-09-27T07:36:22;10.30;99.90
4763;DHT22;2395;50.738;7.122;2022-09-27T07:38:49;10.40;99.90
4763;DHT22;2395;50.738;7.122;2022-09-27T07:41:16;10.50;99.90
4763;DHT22;2395;50.738;7.122;2022-09-27T07:43:43;10.60;99.90
4763;DHT22;2395;50.738;7.122;2022-09-27T07:46:10;10.60;99.90
4763;DHT22;2395;50.738;7.122;2022-09-27T07:48:40;10.70;99.90
4763;DHT22;2395;50.738;7.122;2022-09-27T07:51:07;10.80;99.90
4763;DHT22;2395;50.738;7.122;2022-09-27T07:53:36;10.90;99.90
4763;DHT22;2395;50.738;7.122;2022-09-27T07:56:05;10.90;99.90
4763;DHT22;2395;50.738;7.122;2022-09-27T07:58:32;10.90;99.90
4763;DHT22;2395;50.738;7.122;2022-09-27T08:00:59;11.00;99.90
4763;DHT22;2395;50.738;7.122;2022-09-27T08:03:28;11.00;99.90
4763;DHT22;2395;50.738;7.122;2022-09-27T08:06:01;11.10;99.90
4763;DHT22;2395;50.738;7.122;2022-09-27T08:08:29;11.20;99.90
4763;DHT22;2395;50.738;7.122;2022-09-27T08:10:56;11.20;99.90
4763;DHT22;2395;50.738;7.122;2022-09-27T08:13:23;11.20;99.90
4763;DHT22;2395;50.738;7.122;2022-09-27T08:15:50;11.20;99.90
4763;DHT22;2395;50.738;7.122;2022-09-27T08:18:17;11.20;99.90
4763;DHT22;2395;50.738;7.122;2022-09-27T08:20:46;11.30;99.90
4763;DHT22;2395;50.738;7.122;2022-09-27T08:23:14;11.30;99.90
4763;DHT22;2395;50.738;7.122;2022-09-27T08:25:41;11.40;99.90
4763;DHT22;2395;50.738;7.122;2022-09-27T08:28:09;11.50;99.90
4763;DHT22;2395;50.738;7.122;2022-09-27T08:30:36;11.60;99.90
4763;DHT22;2395;50.738;7.122;2022-09-27T08:33:03;11.50;99.90
4763;DHT22;2395;50.738;7.122;2022-09-27T08:35:31;11.40;99.90
4763;DHT22;2395;50.738;7.122;2022-09-27T08:38:00;11.40;99.90
4763;DHT22;2395;50.738;7.122;2022-09-27T08:40:41;11.40;99.90
4763;DHT22;2395;50.738;7.122;2022-09-27T08:43:26;11.40;99.90
4763;DHT22;2395;50.738;7.122;2022-09-27T08:46:13;11.50;99.90
4763;DHT22;2395;50.738;7.122;2022-09-27T08:48:53;11.50;99.90
4763;DHT22;2395;50.738;7.122;2022-09-27T08:51:29;11.50;99.90
4763;DHT22;2395;50.738;7.122;2022-09-27T08:54:03;11.60;99.90
4763;DHT22;2395;50.738;7.122;2022-09-27T08:56:35;11.60;99.90
4763;DHT22;2395;50.738;7.122;2022-09-27T08:59:09;11.80;99.90
4763;DHT22;2395;50.738;7.122;2022-09-27T09:01:39;11.80;99.90
4763;DHT22;2395;50.738;7.122;2022-09-27T09:04:08;11.70;99.90
4763;DHT22;2395;50.738;7.122;2022-09-27T09:06:42;11.70;99.90
4763;DHT22;2395;50.738;7.122;2022-09-27T09:09:23;11.70;99.90
4763;DHT22;2395;50.738;7.122;2022-09-27T09:12:10;11.80;99.90
4763;DHT22;2395;50.738;7.122;2022-09-27T09:15:15;11.80;99.90
4763;DHT22;2395;50.738;7.122;2022-09-27T09:18:10;11.50;99.90
4763;DHT22;2395;50.738;7.122;2022-09-27T09:20:54;11.50;99.90
4763;DHT22;2395;50.738;7.122;2022-09-27T09:23:41;11.60;99.90
4763;DHT22;2395;50.738;7.122;2022-09-27T09:26:33;11.80;99.90
4763;DHT22;2395;50.738;7.122;2022-09-27T09:29:21;12.00;99.90
4763;DHT22;2395;50.738;7.122;2022-09-27T09:32:05;12.00;99.90
4763;DHT22;2395;50.738;7.122;2022-09-27T09:34:46;12.20;99.90
4763;DHT22;2395;50.738;7.122;2022-09-27T09:37:19;12.30;99.90
4763;DHT22;2395;50.738;7.122;2022-09-27T09:39:52;12.40;99.90
4763;DHT22;2395;50.738;7.122;2022-09-27T09:42:29;12.50;99.90
4763;DHT22;2395;50.738;7.122;2022-09-27T09:45:03;12.70;99.90
4763;DHT22;2395;50.738;7.122;2022-09-27T09:47:44;12.80;99.90
4763;DHT22;2395;50.738;7.122;2022-09-27T09:50:17;12.70;99.90
4763;DHT22;2395;50.738;7.122;2022-09-27T09:52:50;12.60;99.90
4763;DHT22;2395;50.738;7.122;2022-09-27T09:55:27;12.70;99.90
4763;DHT22;2395;50.738;7.122;2022-09-27T09:58:04;12.80;99.90
4763;DHT22;2395;50.738;7.122;2022-09-27T10:00:47;13.00;99.90
4763;DHT22;2395;50.738;7.122;2022-09-27T10:03:17;13.40;99.90
4763;DHT22;2395;50.738;7.122;2022-09-27T10:05:45;13.80;99.90
4763;DHT22;2395;50.738;7.122;2022-09-27T10:08:17;13.70;99.90
4763;DHT22;2395;50.738;7.122;2022-09-27T10:10:47;13.40;99.90
4763;DHT22;2395;50.738;7.122;2022-09-27T10:13:15;13.00;99.90
4763;DHT22;2395;50.738;7.122;2022-09-27T10:15:53;12.80;99.90
4763;DHT22;2395;50.738;7.122;2022-09-27T10:18:25;12.70;99.90
4763;DHT22;2395;50.738;7.122;2022-09-27T10:20:56;12.60;99.90
4763;DHT22;2395;50.738;7.122;2022-09-27T10:23:27;12.60;99.90
4763;DHT22;2395;50.738;7.122;2022-09-27T10:25:56;12.70;99.90
4763;DHT22;2395;50.738;7.122;2022-09-27T10:28:28;12.80;99.90
4763;DHT22;2395;50.738;7.122;2022-09-27T10:31:05;13.10;99.90
4763;DHT22;2395;50.738;7.122;2022-09-27T10:33:37;13.40;99.90
4763;DHT22;2395;50.738;7.122;2022-09-27T10:36:22;13.40;99.90
4763;DHT22;2395;50.738;7.122;2022-09-27T10:38:52;13.50;99.90
4763;DHT22;2395;50.738;7.122;2022-09-27T10:41:30;13.30;99.90
4763;DHT22;2395;50.738;7.122;2022-09-27T10:44:18;13.20;99.90
4763;DHT22;2395;50.738;7.122;2022-09-27T10:46:54;13.10;99.90
4763;DHT22;2395;50.738;7.122;2022-09-27T10:49:26;12.90;99.90
4763;DHT22;2395;50.738;7.122;2022-09-27T10:51:58;12.80;99.90
4763;DHT22;2395;50.738;7.122;2022-09-27T10:54:29;12.80;99.90
4763;DHT22;2395;50.738;7.122;2022-09-27T10:57:01;12.90;99.90
4763;DHT22;2395;50.738;7.122;2022-09-27T10:59:33;13.00;99.90
4763;DHT22;2395;50.738;7.122;2022-09-27T11:02:04;13.00;99.90
4763;DHT22;2395;50.738;7.122;2022-09-27T11:05:02;13.00;99.90
4763;DHT22;2395;50.738;7.122;2022-09-27T11:07:35;13.10;99.90
4763;DHT22;2395;50.738;7.122;2022-09-27T11:10:21;13.00;99.90
4763;DHT22;2395;50.738;7.122;2022-09-27T11:13:12;12.80;99.90
4763;DHT22;2395;50.738;7.122;2022-09-27T11:18:51;12.90;99.90
4763;DHT22;2395;50.738;7.122;2022-09-27T11:21:40;12.90;99.90
4763;DHT22;2395;50.738;7.122;2022-09-27T11:24:31;13.10;99.90
4763;DHT22;2395;50.738;7.122;2022-09-27T11:27:24;13.10;99.90
4763;DHT22;2395;50.738;7.122;2022-09-27T11:30:06;13.30;99.90
4763;DHT22;2395;50.738;7.122;2022-09-27T11:32:47;13.30;99.90
4763;DHT22;2395;50.738;7.122;2022-09-27T11:35:38;13.30;99.90
4763;DHT22;2395;50.738;7.122;2022-09-27T11:38:23;13.20;99.90
4763;DHT22;2395;50.738;7.122;2022-09-27T11:41:07;13.30;99.90
4763;DHT22;2395;50.738;7.122;2022-09-27T11:44:05;13.50;99.90
4763;DHT22;2395;50.738;7.122;2022-09-27T11:46:51;13.50;99.90
4763;DHT22;2395;50.738;7.122;2022-09-27T11:49:57;13.20;99.90
4763;DHT22;2395;50.738;7.122;2022-09-27T11:52:52;13.20;99.90
4763;DHT22;2395;50.738;7.122;2022-09-27T11:55:37;13.10;99.90
4763;DHT22;2395;50.738;7.122;2022-09-27T11:58:19;13.20;99.90
4763;DHT22;2395;50.738;7.122;2022-09-27T12:01:02;13.40;99.90
4763;DHT22;2395;50.738;7.122;2022-09-27T12:07:01;13.70;99.90
4763;DHT22;2395;50.738;7.122;2022-09-27T12:09:40;14.00;99.90
4763;DHT22;2395;50.738;7.122;2022-09-27T12:12:13;14.00;99.90
4763;DHT22;2395;50.738;7.122;2022-09-27T12:14:47;13.70;99.90
4763;DHT22;2395;50.738;7.122;2022-09-27T12:17:28;13.50;99.90
4763;DHT22;2395;50.738;7.122;2022-09-27T12:20:05;13.60;99.90
4763;DHT22;2395;50.738;7.122;2022-09-27T12:22:47;13.60;99.90
4763;DHT22;2395;50.738;7.122;2022-09-27T12:25:22;13.80;99.90
4763;DHT22;2395;50.738;7.122;2022-09-27T12:28:07;14.10;99.90
4763;DHT22;2395;50.738;7.122;2022-09-27T12:30:47;14.00;99.90
4763;DHT22;2395;50.738;7.122;2022-09-27T12:33:25;14.20;99.90
4763;DHT22;2395;50.738;7.122;2022-09-27T12:36:00;13.90;99.90
4763;DHT22;2395;50.738;7.122;2022-09-27T12:38:38;13.70;99.90
4763;DHT22;2395;50.738;7.122;2022-09-27T12:41:13;13.60;99.90
4763;DHT22;2395;50.738;7.122;2022-09-27T12:43:48;13.60;99.90
4763;DHT22;2395;50.738;7.122;2022-09-27T12:46:21;13.70;99.90
4763;DHT22;2395;50.738;7.122;2022-09-27T12:49:05;13.90;99.90
4763;DHT22;2395;50.738;7.122;2022-09-27T12:51:39;13.90;99.90
4763;DHT22;2395;50.738;7.122;2022-09-27T12:54:30;13.90;99.90
4763;DHT22;2395;50.738;7.122;2022-09-27T12:57:26;13.90;99.90
4763;DHT22;2395;50.738;7.122;2022-09-27T13:00:06;13.70;99.90
4763;DHT22;2395;50.738;7.122;2022-09-27T13:03:02;13.40;99.90
4763;DHT22;2395;50.738;7.122;2022-09-27T13:05:54;13.40;99.90
4763;DHT22;2395;50.738;7.122;2022-09-27T13:08:52;13.50;99.90
4763;DHT22;2395;50.738;7.122;2022-09-27T13:11:45;13.30;99.90
4763;DHT22;2395;50.738;7.122;2022-09-27T13:14:21;13.40;99.90
4763;DHT22;2395;50.738;7.122;2022-09-27T13:16:52;13.40;99.90
4763;DHT22;2395;50.738;7.122;2022-09-27T13:19:38;13.90;99.90
4763;DHT22;2395;50.738;7.122;2022-09-27T13:22:08;14.30;99.90
4763;DHT22;2395;50.738;7.122;2022-09-27T13:24:56;14.50;99.90
4763;DHT22;2395;50.738;7.122;2022-09-27T13:27:35;15.10;99.90
4763;DHT22;2395;50.738;7.122;2022-09-27T13:33:43;14.30;99.90
4763;DHT22;2395;50.738;7.122;2022-09-27T13:36:29;13.60;99.90
4763;DHT22;2395;50.738;7.122;2022-09-27T13:39:17;13.50;99.90
4763;DHT22;2395;50.738;7.122;2022-09-27T13:46:02;13.40;99.90
4763;DHT22;2395;50.738;7.122;2022-09-27T13:48:48;13.10;99.90
4763;DHT22;2395;50.738;7.122;2022-09-27T13:51:26;12.80;99.90
4763;DHT22;2395;50.738;7.122;2022-09-27T13:54:09;12.60;99.90
4763;DHT22;2395;50.738;7.122;2022-09-27T13:57:05;12.40;99.90
4763;DHT22;2395;50.738;7.122;2022-09-27T14:00:10;12.30;99.90
4763;DHT22;2395;50.738;7.122;2022-09-27T14:02:52;12.10;99.90
4763;DHT22;2395;50.738;7.122;2022-09-27T14:05:27;11.90;99.90
4763;DHT22;2395;50.738;7.122;2022-09-27T14:07:59;11.60;99.90
4763;DHT22;2395;50.738;7.122;2022-09-27T14:10:29;11.50;99.90
4763;DHT22;2395;50.738;7.122;2022-09-27T14:13:00;11.50;99.90
4763;DHT22;2395;50.738;7.122;2022-09-27T14:15:31;11.60;99.90
4763;DHT22;2395;50.738;7.122;2022-09-27T14:18:00;11.80;99.90
4763;DHT22;2395;50.738;7.122;2022-09-27T14:20:35;12.10;99.90
4763;DHT22;2395;50.738;7.122;2022-09-27T14:23:15;12.60;99.90
4763;DHT22;2395;50.738;7.122;2022-09-27T14:25:46;13.00;99.90
4763;DHT22;2395;50.738;7.122;2022-09-27T14:28:19;13.30;99.90
4763;DHT22;2395;50.738;7.122;2022-09-27T14:30:48;13.90;99.90
4763;DHT22;2395;50.738;7.122;2022-09-27T14:33:32;14.40;99.90
4763;DHT22;2395;50.738;7.122;2022-09-27T14:36:00;14.40;99.90
4763;DHT22;2395;50.738;7.122;2022-09-27T14:38:45;14.70;99.90
4763;DHT22;2395;50.738;7.122;2022-09-27T14:41:13;14.60;99.90
4763;DHT22;2395;50.738;7.122;2022-09-27T14:43:42;14.40;99.90
4763;DHT22;2395;50.738;7.122;2022-09-27T14:46:24;13.60;99.90
4763;DHT22;2395;50.738;7.122;2022-09-27T14:48:55;13.50;99.90
4763;DHT22;2395;50.738;7.122;2022-09-27T14:51:26;13.50;99.90
4763;DHT22;2395;50.738;7.122;2022-09-27T14:53:57;13.40;99.90
4763;DHT22;2395;50.738;7.122;2022-09-27T14:56:27;13.60;99.90
4763;DHT22;2395;50.738;7.122;2022-09-27T14:59:00;13.40;99.90
4763;DHT22;2395;50.738;7.122;2022-09-27T15:01:30;13.40;99.90
4763;DHT22;2395;50.738;7.122;2022-09-27T15:04:04;13.60;99.90
4763;DHT22;2395;50.738;7.122;2022-09-27T15:06:35;13.60;99.90
4763;DHT22;2395;50.738;7.122;2022-09-27T15:09:03;13.50;99.90
4763;DHT22;2395;50.738;7.122;2022-09-27T15:11:34;13.30;99.90
4763;DHT22;2395;50.738;7.122;2022-09-27T15:14:03;13.40;99.90
4763;DHT22;2395;50.738;7.122;2022-09-27T15:16:32;13.80;99.90
4763;DHT22;2395;50.738;7.122;2022-09-27T15:19:01;13.60;99.90
4763;DHT22;2395;50.738;7.122;2022-09-27T15:21:39;13.60;99.90
4763;DHT22;2395;50.738;7.122;2022-09-27T15:24:37;13.40;99.90
4763;DHT22;2395;50.738;7.122;2022-09-27T15:27:13;13.00;99.90
4763;DHT22;2395;50.738;7.122;2022-09-27T15:29:47;12.80;99.90
4763;DHT22;2395;50.738;7.122;2022-09-27T15:32:19;12.60;99.90
4763;DHT22;2395;50.738;7.122;2022-09-27T15:34:50;12.40;99.90
4763;DHT22;2395;50.738;7.122;2022-09-27T15:37:32;12.20;99.90
4763;DHT22;2395;50.738;7.122;2022-09-27T15:43:31;11.80;99.90
4763;DHT22;2395;50.738;7.122;2022-09-27T15:46:03;11.00;99.90
4763;DHT22;2395;50.738;7.122;2022-09-27T15:48:32;10.40;99.90
4763;DHT22;2395;50.738;7.122;2022-09-27T15:51:38;10.00;99.90
4763;DHT22;2395;50.738;7.122;2022-09-27T15:54:06;9.90;99.90
4763;DHT22;2395;50.738;7.122;2022-09-27T15:56:33;9.80;99.90
4763;DHT22;2395;50.738;7.122;2022-09-27T15:59:01;9.60;99.90
4763;DHT22;2395;50.738;7.122;2022-09-27T16:01:28;9.40;99.90
4763;DHT22;2395;50.738;7.122;2022-09-27T16:03:57;9.30;99.90
4763;DHT22;2395;50.738;7.122;2022-09-27T16:06:27;9.30;99.90
4763;DHT22;2395;50.738;7.122;2022-09-27T16:08:54;9.40;99.90
4763;DHT22;2395;50.738;7.122;2022-09-27T16:11:21;9.40;99.90
4763;DHT22;2395;50.738;7.122;2022-09-27T16:13:48;9.40;99.90
4763;DHT22;2395;50.738;7.122;2022-09-27T16:16:19;9.40;99.90
4763;DHT22;2395;50.738;7.122;2022-09-27T16:18:47;9.50;99.90
4763;DHT22;2395;50.738;7.122;2022-09-27T16:21:17;9.60;99.90
4763;DHT22;2395;50.738;7.122;2022-09-27T16:23:46;9.70;99.90
4763;DHT22;2395;50.738;7.122;2022-09-27T16:26:13;9.60;99.90
4763;DHT22;2395;50.738;7.122;2022-09-27T16:28:40;9.70;99.90
4763;DHT22;2395;50.738;7.122;2022-09-27T16:31:08;9.70;99.90
4763;DHT22;2395;50.738;7.122;2022-09-27T16:33:36;9.70;99.90
4763;DHT22;2395;50.738;7.122;2022-09-27T16:36:09;9.60;99.90
4763;DHT22;2395;50.738;7.122;2022-09-27T16:38:50;9.60;99.90
4763;DHT22;2395;50.738;7.122;2022-09-27T16:41:21;9.70;99.90
4763;DHT22;2395;50.738;7.122;2022-09-27T16:43:51;9.60;99.90
4763;DHT22;2395;50.738;7.122;2022-09-27T16:46:26;9.50;99.90
4763;DHT22;2395;50.738;7.122;2022-09-27T16:48:54;9.50;99.90
4763;DHT22;2395;50.738;7.122;2022-09-27T16:51:23;9.50;99.90
4763;DHT22;2395;50.738;7.122;2022-09-27T16:54:09;9.50;99.90
4763;DHT22;2395;50.738;7.122;2022-09-27T16:56:42;9.60;99.90
4763;DHT22;2395;50.738;7.122;2022-09-27T16:59:51;9.60;99.90
4763;DHT22;2395;50.738;7.122;2022-09-27T17:02:20;9.50;99.90
4763;DHT22;2395;50.738;7.122;2022-09-27T17:04:48;9.50;99.90
4763;DHT22;2395;50.738;7.122;2022-09-27T17:07:16;9.60;99.90
4763;DHT22;2395;50.738;7.122;2022-09-27T17:09:45;9.50;99.90
4763;DHT22;2395;50.738;7.122;2022-09-27T17:12:21;9.40;99.90
4763;DHT22;2395;50.738;7.122;2022-09-27T17:14:48;9.50;99.90
4763;DHT22;2395;50.738;7.122;2022-09-27T17:17:16;9.50;99.90